createdAt,value
2022-10-02T00:00:42.844Z,16.80
2022-10-02T00:03:09.325Z,16.80
2022-10-02T00:05:35.800Z,16.80
2022-10-02T00:08:02.291Z,16.80
2022-10-02T00:10:28.770Z,16.80
2022-10-02T00:12:55.269Z,16.80
2022-10-02T00:15:21.736Z,16.90
2022-10-02T00:17:48.215Z,16.90
2022-10-02T00:20:14.690Z,16.90
2022-10-02T00:22:41.170Z,16.90
2022-10-02T00:25:07.629Z,16.90
2022-10-02T00:27:34.087Z,16.80
2022-10-02T00:30:00.553Z,16.90
2022-10-02T00:32:27.034Z,16.80
2022-10-02T00:34:53.505Z,16.80
2022-10-02T00:37:19.985Z,16.80
2022-10-02T00:39:46.445Z,16.80
2022-10-02T00:42:12.913Z,16.90
2022-10-02T00:44:39.381Z,16.90
2022-10-02T00:47:05.860Z,16.90
2022-10-02T00:49:32.318Z,16.80
2022-10-02T00:51:58.813Z,16.80
2022-10-02T00:54:25.286Z,16.90
2022-10-02T00:56:51.766Z,16.90
2022-10-02T00:59:18.251Z,16.90
2022-10-02T01:01:44.963Z,17.00
2022-10-02T01:04:11.451Z,16.90
2022-10-02T01:06:38.246Z,16.90
2022-10-02T01:09:04.871Z,16.90
2022-10-02T01:11:31.346Z,16.90
2022-10-02T01:13:57.844Z,16.90
2022-10-02T01:16:24.330Z,16.90
2022-10-02T01:18:50.845Z,16.80
2022-10-02T01:21:17.328Z,16.90
2022-10-02T01:23:43.801Z,16.80
2022-10-02T01:26:10.287Z,16.90
2022-10-02T01:28:36.762Z,16.90
2022-10-02T01:31:03.236Z,16.80
2022-10-02T01:33:29.708Z,16.90
2022-10-02T01:35:56.164Z,16.90
2022-10-02T01:38:22.632Z,16.90
2022-10-02T01:40:49.097Z,16.80
2022-10-02T01:43:15.564Z,16.80
2022-10-02T01:45:42.073Z,16.80
2022-10-02T01:48:08.583Z,16.80
2022-10-02T01:50:35.060Z,16.80
2022-10-02T01:53:01.552Z,16.80
2022-10-02T01:55:28.036Z,16.80
2022-10-02T01:57:54.522Z,16.90
2022-10-02T02:00:20.995Z,16.80
2022-10-02T02:02:47.491Z,16.90
2022-10-02T02:05:13.950Z,16.80
2022-10-02T02:07:40.437Z,16.90
2022-10-02T02:10:06.910Z,16.90
2022-10-02T02:12:33.395Z,16.90
2022-10-02T02:14:59.851Z,16.90
2022-10-02T02:17:26.337Z,16.90
2022-10-02T02:19:52.804Z,16.90
2022-10-02T02:22:19.307Z,17.00
2022-10-02T02:24:45.786Z,17.00
2022-10-02T02:27:12.255Z,16.90
2022-10-02T02:29:38.720Z,16.90
2022-10-02T02:32:05.217Z,17.00
2022-10-02T02:34:31.685Z,17.00
2022-10-02T02:36:58.151Z,17.00
2022-10-02T02:39:24.636Z,16.90
2022-10-02T02:41:51.098Z,17.00
2022-10-02T02:44:17.585Z,16.90
2022-10-02T02:46:44.094Z,16.90
2022-10-02T02:49:10.578Z,16.90
2022-10-02T02:51:37.054Z,17.00
2022-10-02T02:54:04.636Z,17.00
2022-10-02T02:56:31.123Z,17.00
2022-10-02T02:58:57.601Z,16.90
2022-10-02T03:01:24.141Z,16.90
2022-10-02T03:03:50.643Z,16.90
2022-10-02T03:06:17.116Z,16.90
2022-10-02T03:08:43.603Z,17.00
2022-10-02T03:11:10.063Z,16.90
2022-10-02T03:13:36.537Z,16.90
2022-10-02T03:16:03.087Z,16.90
2022-10-02T03:18:29.621Z,16.80
2022-10-02T03:20:56.095Z,16.80
2022-10-02T03:23:22.585Z,16.90
2022-10-02T03:25:49.047Z,17.00
2022-10-02T03:28:15.763Z,17.00
2022-10-02T03:30:47.394Z,17.00
2022-10-02T03:33:13.879Z,17.00
2022-10-02T03:35:40.354Z,16.80
2022-10-02T03:38:06.841Z,16.80
2022-10-02T03:40:33.334Z,16.90
2022-10-02T03:42:59.823Z,16.90
2022-10-02T03:45:49.377Z,17.00
2022-10-02T03:48:12.738Z,17.00
2022-10-02T03:50:39.200Z,17.00
2022-10-02T03:53:05.669Z,17.10
2022-10-02T03:55:32.131Z,17.10
2022-10-02T03:57:58.591Z,17.10
2022-10-02T04:00:25.048Z,17.10
2022-10-02T04:02:51.536Z,17.00
2022-10-02T04:05:17.994Z,17.00
2022-10-02T04:07:46.889Z,17.10
2022-10-02T04:10:15.568Z,17.10
2022-10-02T04:12:42.090Z,17.00
2022-10-02T04:15:08.567Z,17.00
2022-10-02T04:17:35.060Z,17.10
2022-10-02T04:20:01.542Z,17.10
2022-10-02T04:22:28.019Z,17.10
2022-10-02T04:24:54.509Z,17.10
2022-10-02T04:27:20.967Z,17.10
2022-10-02T04:29:47.459Z,17.10
2022-10-02T04:32:13.924Z,17.10
2022-10-02T04:34:40.413Z,17.20
2022-10-02T04:37:06.881Z,17.20
2022-10-02T04:39:33.357Z,17.20
2022-10-02T04:41:59.811Z,17.10
2022-10-02T04:44:26.271Z,17.20
2022-10-02T04:46:52.743Z,17.20
2022-10-02T04:49:19.231Z,17.20
2022-10-02T04:51:45.710Z,17.20
2022-10-02T04:54:12.180Z,17.20
2022-10-02T04:56:38.891Z,17.30
2022-10-02T04:59:05.614Z,17.20
2022-10-02T05:01:32.086Z,17.30
2022-10-02T05:04:01.937Z,17.20
2022-10-02T05:06:30.502Z,17.20
2022-10-02T05:08:56.998Z,17.20
2022-10-02T05:11:23.475Z,17.20
2022-10-02T05:13:49.966Z,17.30
2022-10-02T05:16:16.481Z,17.20
2022-10-02T05:18:43.052Z,17.20
2022-10-02T05:21:09.513Z,17.30
2022-10-02T05:23:35.984Z,17.20
2022-10-02T05:26:02.468Z,17.20
2022-10-02T05:28:29.009Z,17.20
2022-10-02T05:30:55.496Z,17.30
2022-10-02T05:33:21.964Z,17.30
2022-10-02T05:35:48.437Z,17.40
2022-10-02T05:38:14.924Z,17.30
2022-10-02T05:40:41.392Z,17.40
2022-10-02T05:43:07.874Z,17.20
2022-10-02T05:45:34.354Z,17.20
2022-10-02T05:48:00.805Z,17.30
2022-10-02T05:50:27.430Z,17.30
2022-10-02T05:52:53.907Z,17.30
2022-10-02T05:55:20.395Z,17.40
2022-10-02T05:57:46.870Z,17.40
2022-10-02T06:00:13.335Z,17.30
2022-10-02T06:02:39.862Z,17.40
2022-10-02T06:05:06.418Z,17.20
2022-10-02T06:07:32.894Z,17.30
2022-10-02T06:09:59.378Z,17.30
2022-10-02T06:12:25.840Z,17.30
2022-10-02T06:14:52.317Z,17.40
2022-10-02T06:17:18.767Z,17.40
2022-10-02T06:19:45.251Z,17.30
2022-10-02T06:22:11.711Z,17.30
2022-10-02T06:24:38.180Z,17.20
2022-10-02T06:27:04.652Z,17.30
2022-10-02T06:29:31.122Z,17.30
2022-10-02T06:31:57.649Z,17.30
2022-10-02T06:34:24.152Z,17.30
2022-10-02T06:36:50.640Z,17.30
2022-10-02T06:39:17.126Z,17.20
2022-10-02T06:41:43.615Z,17.20
2022-10-02T06:44:10.079Z,17.10
2022-10-02T06:46:36.736Z,17.30
2022-10-02T06:49:03.373Z,17.20
2022-10-02T06:51:29.840Z,17.30
2022-10-02T06:53:56.312Z,17.40
2022-10-02T06:56:22.786Z,17.30
2022-10-02T06:58:49.245Z,17.20
2022-10-02T07:01:15.885Z,17.20
2022-10-02T07:03:42.406Z,17.30
2022-10-02T07:06:10.736Z,17.40
2022-10-02T07:08:52.801Z,17.40
2022-10-02T07:22:46.746Z,17.40
2022-10-02T07:25:13.228Z,17.30
2022-10-02T07:27:40.700Z,17.30
2022-10-02T07:30:07.181Z,17.30
2022-10-02T07:32:33.626Z,17.20
2022-10-02T07:35:00.095Z,17.40
2022-10-02T07:37:28.759Z,17.40
2022-10-02T07:39:55.238Z,17.40
2022-10-02T07:42:21.694Z,17.40
2022-10-02T07:44:48.161Z,17.40
2022-10-02T07:47:14.644Z,17.40
2022-10-02T07:49:46.906Z,17.40
2022-10-02T07:52:13.380Z,17.30
2022-10-02T07:54:39.847Z,17.30
2022-10-02T07:57:09.783Z,17.40
2022-10-02T07:59:36.526Z,17.30
2022-10-02T08:02:04.813Z,17.30
2022-10-02T08:04:35.973Z,17.40
2022-10-02T08:07:03.456Z,17.40
2022-10-02T08:09:29.918Z,17.40
2022-10-02T08:11:56.380Z,17.30
2022-10-02T08:20:04.794Z,17.30
2022-10-02T08:22:31.266Z,17.30
2022-10-02T08:24:57.754Z,17.30
2022-10-02T08:27:24.224Z,17.30
2022-10-02T08:29:50.708Z,17.30
2022-10-02T08:32:17.191Z,17.40
2022-10-02T08:34:43.662Z,17.40
2022-10-02T08:37:10.136Z,17.50
2022-10-02T08:39:36.594Z,17.40
2022-10-02T08:42:03.051Z,17.50
2022-10-02T08:44:36.513Z,17.50
2022-10-02T08:47:03.136Z,17.50
2022-10-02T08:49:34.798Z,17.60
2022-10-02T08:54:52.823Z,17.50
2022-10-02T08:57:19.321Z,17.60
2022-10-02T08:59:45.793Z,17.50
2022-10-02T09:02:12.328Z,17.50
2022-10-02T09:04:38.831Z,17.50
2022-10-02T09:07:05.303Z,17.60
2022-10-02T09:09:31.773Z,17.50
2022-10-02T09:11:58.829Z,17.50
2022-10-02T09:14:25.283Z,17.50
2022-10-02T09:16:51.839Z,17.50
2022-10-02T09:19:18.340Z,17.60
2022-10-02T09:24:40.845Z,17.60
2022-10-02T09:27:07.321Z,17.60
2022-10-02T09:29:33.790Z,17.60
2022-10-02T09:32:00.282Z,17.60
2022-10-02T09:34:26.796Z,17.60
2022-10-02T09:36:53.286Z,17.60
2022-10-02T09:39:19.751Z,17.60
2022-10-02T09:41:46.229Z,17.60
2022-10-02T09:44:12.695Z,17.60
2022-10-02T09:46:39.347Z,17.60
2022-10-02T09:49:06.042Z,17.60
2022-10-02T09:51:32.507Z,17.50
2022-10-02T09:53:58.976Z,17.50
2022-10-02T09:56:25.495Z,17.60
2022-10-02T09:59:04.974Z,17.60
2022-10-02T10:01:31.503Z,17.60
2022-10-02T10:03:58.063Z,17.60
2022-10-02T10:06:28.874Z,17.50
2022-10-02T10:08:55.339Z,17.60
2022-10-02T10:11:21.806Z,17.50
2022-10-02T10:13:52.891Z,17.50
2022-10-02T10:19:09.824Z,17.60
2022-10-02T10:21:36.531Z,17.60
2022-10-02T10:24:03.145Z,17.60
2022-10-02T10:26:34.892Z,17.60
2022-10-02T10:29:10.914Z,17.50
2022-10-02T10:31:37.524Z,17.60
2022-10-02T10:34:04.197Z,17.50
2022-10-02T10:36:30.688Z,17.60
2022-10-02T10:39:05.059Z,17.50
2022-10-02T10:41:31.556Z,17.60
2022-10-02T10:43:58.034Z,17.50
2022-10-02T10:46:24.600Z,17.60
2022-10-02T10:48:51.073Z,17.60
2022-10-02T10:51:22.921Z,17.60
2022-10-02T10:54:04.834Z,17.60
2022-10-02T10:56:31.326Z,17.60
2022-10-02T10:58:57.795Z,17.60
2022-10-02T11:01:29.003Z,17.60
2022-10-02T11:03:58.938Z,17.60
2022-10-02T11:06:25.441Z,17.60
2022-10-02T11:08:51.914Z,17.70
2022-10-02T11:11:18.388Z,17.70
2022-10-02T11:13:44.867Z,17.70
2022-10-02T11:16:16.985Z,17.70
2022-10-02T11:18:43.499Z,17.70
2022-10-02T11:23:59.934Z,17.70
2022-10-02T11:26:28.943Z,17.70
2022-10-02T11:28:59.103Z,17.70
2022-10-02T11:31:25.635Z,17.70
2022-10-02T11:33:52.143Z,17.70
2022-10-02T11:36:18.615Z,17.70
2022-10-02T11:38:45.086Z,17.70
2022-10-02T11:41:11.550Z,17.70
2022-10-02T11:43:41.858Z,17.70
2022-10-02T11:46:10.565Z,17.70
2022-10-02T11:48:37.069Z,17.70
2022-10-02T11:51:04.942Z,17.70
2022-10-02T11:53:31.402Z,17.70
2022-10-02T11:55:57.858Z,17.70
2022-10-02T11:58:24.306Z,17.70
2022-10-02T12:00:50.766Z,17.70
2022-10-02T12:03:17.321Z,17.70
2022-10-02T12:05:43.870Z,17.70
2022-10-02T12:08:10.335Z,17.70
2022-10-02T12:10:36.838Z,17.70
2022-10-02T12:13:03.320Z,17.70
2022-10-02T12:15:29.787Z,17.70
2022-10-02T12:17:56.246Z,17.70
2022-10-02T12:20:22.977Z,17.70
2022-10-02T12:22:49.444Z,17.70
2022-10-02T12:25:15.938Z,17.80
2022-10-02T12:27:42.403Z,17.70
2022-10-02T12:32:59.297Z,17.70
2022-10-02T12:35:28.983Z,17.70
2022-10-02T12:37:55.456Z,17.70
2022-10-02T12:40:22.986Z,17.70
2022-10-02T12:42:49.450Z,17.70
2022-10-02T12:45:17.002Z,17.70
2022-10-02T12:47:43.479Z,17.70
2022-10-02T12:50:09.984Z,17.70
2022-10-02T12:52:36.447Z,17.70
2022-10-02T12:55:02.921Z,17.70
2022-10-02T12:57:29.412Z,17.70
2022-10-02T12:59:55.878Z,17.70
2022-10-02T13:02:33.047Z,17.70
2022-10-02T13:05:08.825Z,17.70
2022-10-02T13:07:35.306Z,17.80
2022-10-02T13:10:01.765Z,17.80
2022-10-02T13:12:28.242Z,17.80
2022-10-02T13:14:54.717Z,17.70
2022-10-02T13:17:21.216Z,17.70
2022-10-02T13:19:53.179Z,17.70
2022-10-02T13:22:19.659Z,17.70
2022-10-02T13:24:46.989Z,17.70
2022-10-02T13:27:13.460Z,17.80
2022-10-02T13:29:39.933Z,17.70
2022-10-02T13:32:06.524Z,17.70
2022-10-02T13:34:36.375Z,17.70
2022-10-02T13:37:04.910Z,17.70
2022-10-02T13:39:31.401Z,17.60
2022-10-02T13:41:57.886Z,17.60
2022-10-02T13:44:24.366Z,17.70
2022-10-02T13:46:50.847Z,17.70
2022-10-02T13:49:17.317Z,17.70
2022-10-02T13:54:35.056Z,17.70
2022-10-02T13:57:05.046Z,17.80
2022-10-02T13:59:31.515Z,17.80
2022-10-02T14:01:57.989Z,17.80
2022-10-02T14:04:35.296Z,17.80
2022-10-02T14:09:51.995Z,17.80
2022-10-02T14:12:18.471Z,17.80
2022-10-02T14:14:53.195Z,17.80
2022-10-02T14:20:10.098Z,17.70
2022-10-02T14:22:41.233Z,17.80
2022-10-02T14:25:07.729Z,17.80
2022-10-02T14:27:41.227Z,17.80
2022-10-02T14:35:49.455Z,17.90
2022-10-02T14:40:59.857Z,17.80
2022-10-02T14:43:26.330Z,17.90
2022-10-02T14:48:43.005Z,17.90
2022-10-02T14:54:00.046Z,17.90
2022-10-02T14:59:17.132Z,17.90
2022-10-02T15:01:43.594Z,17.90
2022-10-02T15:04:11.100Z,17.90
2022-10-02T15:06:37.600Z,17.90
2022-10-02T15:09:04.082Z,17.90
2022-10-02T15:11:35.328Z,18.00
2022-10-02T15:14:02.104Z,17.90
2022-10-02T15:27:53.145Z,18.00
2022-10-02T15:30:19.691Z,17.90
2022-10-02T15:32:46.162Z,17.90
2022-10-02T15:35:12.659Z,17.90
2022-10-02T15:37:39.136Z,17.90
2022-10-02T15:40:05.625Z,17.90
2022-10-02T15:42:32.112Z,17.90
2022-10-02T15:44:58.582Z,17.90
2022-10-02T15:47:25.068Z,17.90
2022-10-02T15:49:59.296Z,17.90
2022-10-02T15:58:06.339Z,17.90
2022-10-02T16:00:32.848Z,17.90
2022-10-02T16:03:05.200Z,17.90
2022-10-02T16:05:35.189Z,17.90
2022-10-02T16:08:01.677Z,17.90
2022-10-02T16:10:29.167Z,17.90
2022-10-02T16:12:55.628Z,17.90
2022-10-02T16:15:23.193Z,17.90
2022-10-02T16:17:59.260Z,17.90
2022-10-02T16:20:25.743Z,17.90
2022-10-02T16:22:52.207Z,17.90
2022-10-02T16:25:18.693Z,17.80
2022-10-02T16:27:45.161Z,17.90
2022-10-02T16:33:02.123Z,17.90
2022-10-02T16:38:19.200Z,17.90
2022-10-02T16:40:45.672Z,17.80
2022-10-02T16:43:12.129Z,17.90
2022-10-02T16:48:29.145Z,17.90
2022-10-02T16:53:46.288Z,17.90
2022-10-02T17:02:16.450Z,17.90
2022-10-02T17:04:41.199Z,17.90
2022-10-02T17:07:07.683Z,17.90
2022-10-02T17:09:34.161Z,17.90
2022-10-02T17:12:00.721Z,17.90
2022-10-02T17:14:35.185Z,17.90
2022-10-02T17:17:01.674Z,17.90
2022-10-02T17:19:28.145Z,17.90
2022-10-02T17:21:54.621Z,17.90
2022-10-02T17:24:23.192Z,17.90
2022-10-02T17:26:49.674Z,17.90
2022-10-02T17:29:16.167Z,17.80
2022-10-02T17:31:42.701Z,17.90
2022-10-02T17:34:09.220Z,17.80
2022-10-02T17:36:41.249Z,17.80
2022-10-02T17:39:17.408Z,17.80
2022-10-02T17:41:43.881Z,17.80
2022-10-02T17:44:10.344Z,17.80
2022-10-02T17:46:37.020Z,17.80
2022-10-02T17:49:05.226Z,17.80
2022-10-02T17:51:51.689Z,17.80
2022-10-02T17:54:18.146Z,17.70
2022-10-02T17:56:47.264Z,17.80
2022-10-02T17:59:13.739Z,17.70
2022-10-02T18:01:41.333Z,17.70
2022-10-02T18:04:07.819Z,17.70
2022-10-02T18:06:34.306Z,17.70
2022-10-02T18:09:05.365Z,17.70
2022-10-02T18:11:31.833Z,17.70
2022-10-02T18:14:11.489Z,17.80
2022-10-02T18:16:41.302Z,17.70
2022-10-02T18:21:51.700Z,17.80
2022-10-02T18:24:18.179Z,17.70
2022-10-02T18:26:44.638Z,17.70
2022-10-02T18:29:11.111Z,17.70
2022-10-02T18:31:54.579Z,17.70
2022-10-02T18:34:23.248Z,17.70
2022-10-02T18:36:49.721Z,17.70
2022-10-02T18:39:23.448Z,17.70
2022-10-02T18:41:53.306Z,17.70
2022-10-02T18:44:23.454Z,17.70
2022-10-02T18:46:53.292Z,17.70
2022-10-02T18:49:19.769Z,17.70
2022-10-02T18:51:46.246Z,17.70
2022-10-02T18:54:17.403Z,17.70
2022-10-02T18:56:43.869Z,17.70
2022-10-02T18:59:10.337Z,17.70
2022-10-02T19:01:36.995Z,17.70
2022-10-02T19:04:03.703Z,17.60
2022-10-02T19:06:35.319Z,17.60
2022-10-02T19:09:06.706Z,17.60
2022-10-02T19:11:35.505Z,17.60
2022-10-02T19:14:02.194Z,17.70
2022-10-02T19:16:28.713Z,17.70
2022-10-02T19:18:59.393Z,17.70
2022-10-02T19:21:25.882Z,17.70
2022-10-02T19:23:52.342Z,17.70
2022-10-02T19:26:18.802Z,17.70
2022-10-02T19:28:47.308Z,17.70
2022-10-02T19:31:17.406Z,17.70
2022-10-02T19:33:43.893Z,17.60
2022-10-02T19:36:10.360Z,17.70
2022-10-02T19:38:36.827Z,17.60
2022-10-02T19:41:05.348Z,17.60
2022-10-02T19:43:41.364Z,17.60
2022-10-02T19:46:07.957Z,17.60
2022-10-02T19:48:41.460Z,17.60
2022-10-02T19:51:07.929Z,17.60
2022-10-02T19:53:34.396Z,17.60
2022-10-02T19:56:05.350Z,17.60
2022-10-02T19:58:35.481Z,17.60
2022-10-02T20:01:01.976Z,17.60
2022-10-02T20:03:28.474Z,17.60
2022-10-02T20:05:59.369Z,17.60
2022-10-02T20:08:25.857Z,17.50
2022-10-02T20:10:52.329Z,17.50
2022-10-02T20:13:32.461Z,17.60
2022-10-02T20:16:05.436Z,17.60
2022-10-02T20:18:35.421Z,17.60
2022-10-02T20:21:01.917Z,17.60
2022-10-02T20:23:35.574Z,17.60
2022-10-02T20:26:02.057Z,17.60
2022-10-02T20:28:28.594Z,17.60
2022-10-02T20:30:55.076Z,17.60
2022-10-02T20:33:29.540Z,17.50
2022-10-02T20:35:59.397Z,17.50
2022-10-02T20:38:25.854Z,17.50
2022-10-02T20:40:53.385Z,17.50
2022-10-02T20:43:19.848Z,17.50
2022-10-02T20:45:46.395Z,17.50
2022-10-02T20:48:17.590Z,17.50
2022-10-02T20:50:44.076Z,17.50
2022-10-02T20:53:11.389Z,17.40
2022-10-02T20:55:37.858Z,17.50
2022-10-02T21:03:39.550Z,17.50
2022-10-02T21:06:06.034Z,17.50
2022-10-02T21:08:35.384Z,17.50
2022-10-02T21:11:05.430Z,17.50
2022-10-02T21:13:31.890Z,17.50
2022-10-02T21:15:58.370Z,17.50
2022-10-02T21:18:24.831Z,17.50
2022-10-02T21:20:53.449Z,17.40
2022-10-02T21:23:23.392Z,17.50
2022-10-02T21:25:49.891Z,17.40
2022-10-02T21:28:23.641Z,17.40
2022-10-02T21:30:50.205Z,17.50
2022-10-02T21:33:16.699Z,17.50
2022-10-02T21:35:43.179Z,17.40
2022-10-02T21:38:11.398Z,17.50
2022-10-02T21:40:41.449Z,17.50
2022-10-02T21:43:07.929Z,17.50
2022-10-02T21:45:34.409Z,17.50
2022-10-02T21:48:11.650Z,17.50
2022-10-02T21:50:41.453Z,17.50
2022-10-02T21:53:23.428Z,17.50
2022-10-02T21:55:49.915Z,17.50
2022-10-02T21:58:29.548Z,17.40
2022-10-02T22:00:56.041Z,17.40
2022-10-02T22:03:22.514Z,17.40
2022-10-02T22:05:53.562Z,17.40
2022-10-02T22:08:20.102Z,17.40
2022-10-02T22:10:46.571Z,17.40
2022-10-02T22:13:29.496Z,17.30
2022-10-02T22:15:56.034Z,17.40
2022-10-02T22:18:23.447Z,17.40
2022-10-02T22:20:49.919Z,17.30
2022-10-02T22:23:16.384Z,17.40
2022-10-02T22:25:47.493Z,17.40
2022-10-02T22:28:17.716Z,17.40
2022-10-02T22:30:44.305Z,17.40
2022-10-02T22:33:17.532Z,17.30
2022-10-02T22:35:44.013Z,17.40
2022-10-02T22:38:10.472Z,17.30
2022-10-02T22:43:27.506Z,17.20
2022-10-02T22:45:59.588Z,17.30
2022-10-02T22:48:26.088Z,17.20
2022-10-02T22:50:53.515Z,17.10
2022-10-02T22:53:19.990Z,17.30
2022-10-02T22:55:46.471Z,17.30
2022-10-02T22:58:17.634Z,17.20
2022-10-02T23:00:44.113Z,17.30
2022-10-02T23:03:10.588Z,17.20
2022-10-02T23:14:11.536Z,17.30
2022-10-02T23:19:28.481Z,17.20
2022-10-02T23:21:54.956Z,17.30
2022-10-02T23:24:21.437Z,17.30
2022-10-02T23:26:47.899Z,17.20
2022-10-02T23:32:03.833Z,17.20
2022-10-02T23:34:30.309Z,17.40
2022-10-02T23:36:56.783Z,17.30
2022-10-02T23:39:23.489Z,17.20
2022-10-02T23:41:49.979Z,17.20
2022-10-02T23:44:23.687Z,17.20
2022-10-02T23:46:50.177Z,17.20
2022-10-02T23:49:16.655Z,17.30
2022-10-02T23:51:47.567Z,17.30
2022-10-02T23:54:14.022Z,17.20
